sensor_id;sensor_type;location;lat;lon;timestamp;P1;durP1;ratioP1;P2;durP2;ratioP2
81306;SDS011;70775;50.846;3.224;2024-03-22T00:00:35;61.78;;;24.73;;
81306;SDS011;70775;50.846;3.224;2024-03-22T00:03:00;51.00;;;22.25;;
81306;SDS011;70775;50.846;3.224;2024-03-22T00:05:26;53.63;;;22.58;;
81306;SDS011;70775;50.846;3.224;2024-03-22T00:07:52;54.95;;;24.92;;
81306;SDS011;70775;50.846;3.224;2024-03-22T00:10:17;49.92;;;20.40;;
81306;SDS011;70775;50.846;3.224;2024-03-22T00:12:43;54.05;;;22.52;;
81306;SDS011;70775;50.846;3.224;2024-03-22T00:15:08;60.88;;;24.02;;
81306;SDS011;70775;50.846;3.224;2024-03-22T00:17:34;52.92;;;22.73;;
81306;SDS011;70775;50.846;3.224;2024-03-22T00:20:00;43.85;;;20.20;;
81306;SDS011;70775;50.846;3.224;2024-03-22T00:22:26;58.08;;;23.92;;
81306;SDS011;70775;50.846;3.224;2024-03-22T00:24:52;55.70;;;23.60;;
81306;SDS011;70775;50.846;3.224;2024-03-22T00:27:17;55.38;;;23.70;;
81306;SDS011;70775;50.846;3.224;2024-03-22T00:29:43;45.88;;;20.88;;
81306;SDS011;70775;50.846;3.224;2024-03-22T00:32:09;43.97;;;20.17;;
81306;SDS011;70775;50.846;3.224;2024-03-22T00:34:34;51.28;;;21.98;;
81306;SDS011;70775;50.846;3.224;2024-03-22T00:37:00;50.67;;;21.70;;
81306;SDS011;70775;50.846;3.224;2024-03-22T00:39:26;53.08;;;21.85;;
81306;SDS011;70775;50.846;3.224;2024-03-22T00:41:51;49.05;;;20.00;;
81306;SDS011;70775;50.846;3.224;2024-03-22T00:44:17;41.78;;;18.13;;
81306;SDS011;70775;50.846;3.224;2024-03-22T00:46:43;34.10;;;14.60;;
81306;SDS011;70775;50.846;3.224;2024-03-22T00:49:08;37.83;;;16.48;;
81306;SDS011;70775;50.846;3.224;2024-03-22T00:51:34;32.70;;;14.35;;
81306;SDS011;70775;50.846;3.224;2024-03-22T00:54:00;35.50;;;14.85;;
81306;SDS011;70775;50.846;3.224;2024-03-22T00:56:25;32.20;;;13.57;;
81306;SDS011;70775;50.846;3.224;2024-03-22T00:58:51;27.27;;;13.02;;
81306;SDS011;70775;50.846;3.224;2024-03-22T01:01:17;32.85;;;14.63;;
81306;SDS011;70775;50.846;3.224;2024-03-22T01:03:42;26.70;;;12.88;;
81306;SDS011;70775;50.846;3.224;2024-03-22T01:06:08;27.35;;;12.45;;
81306;SDS011;70775;50.846;3.224;2024-03-22T01:08:33;32.75;;;13.80;;
81306;SDS011;70775;50.846;3.224;2024-03-22T01:10:59;26.60;;;12.90;;
81306;SDS011;70775;50.846;3.224;2024-03-22T01:13:25;32.65;;;14.45;;
81306;SDS011;70775;50.846;3.224;2024-03-22T01:15:50;26.05;;;11.93;;
81306;SDS011;70775;50.846;3.224;2024-03-22T01:18:16;26.35;;;12.60;;
81306;SDS011;70775;50.846;3.224;2024-03-22T01:20:41;27.80;;;12.40;;
81306;SDS011;70775;50.846;3.224;2024-03-22T01:23:08;23.75;;;11.15;;
81306;SDS011;70775;50.846;3.224;2024-03-22T01:25:33;26.00;;;11.52;;
81306;SDS011;70775;50.846;3.224;2024-03-22T01:27:59;29.35;;;11.85;;
81306;SDS011;70775;50.846;3.224;2024-03-22T01:30:25;26.63;;;12.25;;
81306;SDS011;70775;50.846;3.224;2024-03-22T01:32:54;26.27;;;11.55;;
81306;SDS011;70775;50.846;3.224;2024-03-22T01:35:20;22.73;;;10.02;;
81306;SDS011;70775;50.846;3.224;2024-03-22T01:37:45;23.35;;;11.00;;
81306;SDS011;70775;50.846;3.224;2024-03-22T01:40:11;22.77;;;10.25;;
81306;SDS011;70775;50.846;3.224;2024-03-22T01:42:38;20.25;;;9.75;;
81306;SDS011;70775;50.846;3.224;2024-03-22T01:45:04;25.58;;;11.48;;
81306;SDS011;70775;50.846;3.224;2024-03-22T01:47:30;20.60;;;9.10;;
81306;SDS011;70775;50.846;3.224;2024-03-22T01:49:56;18.65;;;9.73;;
81306;SDS011;70775;50.846;3.224;2024-03-22T01:52:22;22.20;;;10.90;;
81306;SDS011;70775;50.846;3.224;2024-03-22T01:54:48;19.80;;;9.88;;
81306;SDS011;70775;50.846;3.224;2024-03-22T01:57:14;23.45;;;9.15;;
81306;SDS011;70775;50.846;3.224;2024-03-22T01:59:40;23.23;;;11.43;;
81306;SDS011;70775;50.846;3.224;2024-03-22T02:02:07;26.88;;;13.18;;
81306;SDS011;70775;50.846;3.224;2024-03-22T02:04:32;24.67;;;12.65;;
81306;SDS011;70775;50.846;3.224;2024-03-22T02:06:58;26.17;;;11.02;;
81306;SDS011;70775;50.846;3.224;2024-03-22T02:09:24;28.00;;;13.05;;
81306;SDS011;70775;50.846;3.224;2024-03-22T02:11:50;23.23;;;11.68;;
81306;SDS011;70775;50.846;3.224;2024-03-22T02:14:16;28.65;;;12.38;;
81306;SDS011;70775;50.846;3.224;2024-03-22T02:16:41;30.40;;;12.27;;
81306;SDS011;70775;50.846;3.224;2024-03-22T02:19:07;17.90;;;7.72;;
81306;SDS011;70775;50.846;3.224;2024-03-22T02:21:33;30.40;;;12.02;;
81306;SDS011;70775;50.846;3.224;2024-03-22T02:23:59;20.63;;;9.88;;
81306;SDS011;70775;50.846;3.224;2024-03-22T02:26:25;23.30;;;10.07;;
81306;SDS011;70775;50.846;3.224;2024-03-22T02:28:51;27.35;;;12.68;;
81306;SDS011;70775;50.846;3.224;2024-03-22T02:31:16;22.88;;;9.77;;
81306;SDS011;70775;50.846;3.224;2024-03-22T02:33:42;23.38;;;10.00;;
81306;SDS011;70775;50.846;3.224;2024-03-22T02:36:08;28.85;;;12.75;;
81306;SDS011;70775;50.846;3.224;2024-03-22T02:38:34;19.58;;;8.43;;
81306;SDS011;70775;50.846;3.224;2024-03-22T02:41:00;21.35;;;9.65;;
81306;SDS011;70775;50.846;3.224;2024-03-22T02:43:25;27.02;;;12.57;;
81306;SDS011;70775;50.846;3.224;2024-03-22T02:45:51;25.10;;;11.95;;
81306;SDS011;70775;50.846;3.224;2024-03-22T02:48:16;27.75;;;11.80;;
81306;SDS011;70775;50.846;3.224;2024-03-22T02:50:42;26.88;;;11.75;;
81306;SDS011;70775;50.846;3.224;2024-03-22T02:53:08;19.77;;;9.65;;
81306;SDS011;70775;50.846;3.224;2024-03-22T02:55:37;29.00;;;12.27;;
81306;SDS011;70775;50.846;3.224;2024-03-22T02:58:04;21.27;;;10.35;;
81306;SDS011;70775;50.846;3.224;2024-03-22T03:00:30;31.20;;;14.10;;
81306;SDS011;70775;50.846;3.224;2024-03-22T03:02:56;21.70;;;9.05;;
81306;SDS011;70775;50.846;3.224;2024-03-22T03:05:21;28.50;;;11.57;;
81306;SDS011;70775;50.846;3.224;2024-03-22T03:07:50;27.30;;;11.88;;
81306;SDS011;70775;50.846;3.224;2024-03-22T03:10:16;21.60;;;10.52;;
81306;SDS011;70775;50.846;3.224;2024-03-22T03:12:41;20.92;;;9.75;;
81306;SDS011;70775;50.846;3.224;2024-03-22T03:15:07;26.38;;;11.13;;
81306;SDS011;70775;50.846;3.224;2024-03-22T03:17:33;27.17;;;11.25;;
81306;SDS011;70775;50.846;3.224;2024-03-22T03:19:58;25.35;;;11.85;;
81306;SDS011;70775;50.846;3.224;2024-03-22T03:22:24;24.23;;;10.40;;
81306;SDS011;70775;50.846;3.224;2024-03-22T03:24:50;23.65;;;10.68;;
81306;SDS011;70775;50.846;3.224;2024-03-22T03:27:16;24.98;;;12.30;;
81306;SDS011;70775;50.846;3.224;2024-03-22T03:29:41;22.90;;;11.85;;
81306;SDS011;70775;50.846;3.224;2024-03-22T03:32:07;26.08;;;11.93;;
81306;SDS011;70775;50.846;3.224;2024-03-22T03:34:33;22.48;;;10.40;;
81306;SDS011;70775;50.846;3.224;2024-03-22T03:36:58;19.45;;;8.68;;
81306;SDS011;70775;50.846;3.224;2024-03-22T03:39:26;18.83;;;8.52;;
81306;SDS011;70775;50.846;3.224;2024-03-22T03:41:52;23.38;;;9.88;;
81306;SDS011;70775;50.846;3.224;2024-03-22T03:44:18;15.85;;;7.15;;
81306;SDS011;70775;50.846;3.224;2024-03-22T03:46:43;24.58;;;11.82;;
81306;SDS011;70775;50.846;3.224;2024-03-22T03:49:09;24.17;;;9.00;;
81306;SDS011;70775;50.846;3.224;2024-03-22T03:51:35;17.67;;;8.32;;
81306;SDS011;70775;50.846;3.224;2024-03-22T03:54:01;23.10;;;10.85;;
81306;SDS011;70775;50.846;3.224;2024-03-22T03:56:26;19.15;;;8.13;;
81306;SDS011;70775;50.846;3.224;2024-03-22T03:58:52;22.77;;;9.70;;
81306;SDS011;70775;50.846;3.224;2024-03-22T04:01:18;23.50;;;10.27;;
81306;SDS011;70775;50.846;3.224;2024-03-22T04:03:44;22.25;;;9.10;;
81306;SDS011;70775;50.846;3.224;2024-03-22T04:06:09;22.75;;;9.23;;
81306;SDS011;70775;50.846;3.224;2024-03-22T04:08:35;19.55;;;9.07;;
81306;SDS011;70775;50.846;3.224;2024-03-22T04:11:01;20.88;;;9.65;;
81306;SDS011;70775;50.846;3.224;2024-03-22T04:13:27;13.80;;;6.82;;
81306;SDS011;70775;50.846;3.224;2024-03-22T04:15:53;15.55;;;7.75;;
81306;SDS011;70775;50.846;3.224;2024-03-22T04:18:23;18.40;;;7.32;;
81306;SDS011;70775;50.846;3.224;2024-03-22T04:20:55;16.95;;;7.63;;
81306;SDS011;70775;50.846;3.224;2024-03-22T04:23:22;26.23;;;8.52;;
81306;SDS011;70775;50.846;3.224;2024-03-22T04:25:58;11.18;;;5.78;;
81306;SDS011;70775;50.846;3.224;2024-03-22T04:28:26;15.93;;;7.50;;
81306;SDS011;70775;50.846;3.224;2024-03-22T04:33:31;19.40;;;7.75;;
81306;SDS011;70775;50.846;3.224;2024-03-22T04:35:58;12.90;;;5.85;;
81306;SDS011;70775;50.846;3.224;2024-03-22T04:38:24;12.30;;;5.95;;
81306;SDS011;70775;50.846;3.224;2024-03-22T04:40:50;10.23;;;5.25;;
81306;SDS011;70775;50.846;3.224;2024-03-22T04:43:16;17.10;;;6.88;;
81306;SDS011;70775;50.846;3.224;2024-03-22T04:45:45;10.50;;;4.60;;
81306;SDS011;70775;50.846;3.224;2024-03-22T04:48:16;13.70;;;6.25;;
81306;SDS011;70775;50.846;3.224;2024-03-22T04:50:43;17.48;;;6.13;;
81306;SDS011;70775;50.846;3.224;2024-03-22T04:53:08;11.52;;;5.22;;
81306;SDS011;70775;50.846;3.224;2024-03-22T04:55:34;16.52;;;5.78;;
81306;SDS011;70775;50.846;3.224;2024-03-22T04:57:59;15.13;;;7.35;;
81306;SDS011;70775;50.846;3.224;2024-03-22T05:00:25;7.47;;;3.22;;
81306;SDS011;70775;50.846;3.224;2024-03-22T05:02:51;11.88;;;4.82;;
81306;SDS011;70775;50.846;3.224;2024-03-22T05:05:17;13.60;;;5.63;;
81306;SDS011;70775;50.846;3.224;2024-03-22T05:07:43;11.00;;;4.93;;
81306;SDS011;70775;50.846;3.224;2024-03-22T05:10:09;11.60;;;5.53;;
81306;SDS011;70775;50.846;3.224;2024-03-22T05:12:35;7.32;;;3.53;;
81306;SDS011;70775;50.846;3.224;2024-03-22T05:15:02;11.73;;;4.30;;
81306;SDS011;70775;50.846;3.224;2024-03-22T05:17:28;15.63;;;4.40;;
81306;SDS011;70775;50.846;3.224;2024-03-22T05:19:56;13.55;;;4.57;;
81306;SDS011;70775;50.846;3.224;2024-03-22T05:22:22;9.75;;;5.07;;
81306;SDS011;70775;50.846;3.224;2024-03-22T05:24:48;9.52;;;4.47;;
81306;SDS011;70775;50.846;3.224;2024-03-22T05:27:13;10.85;;;4.47;;
81306;SDS011;70775;50.846;3.224;2024-03-22T05:29:39;8.68;;;4.15;;
81306;SDS011;70775;50.846;3.224;2024-03-22T05:32:05;12.43;;;5.68;;
81306;SDS011;70775;50.846;3.224;2024-03-22T05:34:31;12.85;;;6.10;;
81306;SDS011;70775;50.846;3.224;2024-03-22T05:36:56;9.88;;;4.55;;
81306;SDS011;70775;50.846;3.224;2024-03-22T05:39:22;16.75;;;6.38;;
81306;SDS011;70775;50.846;3.224;2024-03-22T05:41:47;9.27;;;4.28;;
81306;SDS011;70775;50.846;3.224;2024-03-22T05:44:13;10.80;;;5.70;;
81306;SDS011;70775;50.846;3.224;2024-03-22T05:46:39;15.65;;;7.00;;
81306;SDS011;70775;50.846;3.224;2024-03-22T05:49:04;13.63;;;6.32;;
81306;SDS011;70775;50.846;3.224;2024-03-22T05:51:30;14.00;;;7.18;;
81306;SDS011;70775;50.846;3.224;2024-03-22T05:53:56;11.93;;;5.07;;
81306;SDS011;70775;50.846;3.224;2024-03-22T05:56:22;12.27;;;6.55;;
81306;SDS011;70775;50.846;3.224;2024-03-22T05:58:47;13.38;;;6.47;;
81306;SDS011;70775;50.846;3.224;2024-03-22T06:01:13;13.40;;;6.25;;
81306;SDS011;70775;50.846;3.224;2024-03-22T06:03:39;15.70;;;6.38;;
81306;SDS011;70775;50.846;3.224;2024-03-22T06:06:04;16.77;;;6.90;;
81306;SDS011;70775;50.846;3.224;2024-03-22T06:08:30;18.83;;;9.55;;
81306;SDS011;70775;50.846;3.224;2024-03-22T06:11:04;18.67;;;7.50;;
81306;SDS011;70775;50.846;3.224;2024-03-22T06:13:32;19.98;;;8.25;;
81306;SDS011;70775;50.846;3.224;2024-03-22T06:15:58;16.00;;;5.05;;
81306;SDS011;70775;50.846;3.224;2024-03-22T06:18:23;11.80;;;5.30;;
81306;SDS011;70775;50.846;3.224;2024-03-22T06:20:49;15.18;;;6.57;;
81306;SDS011;70775;50.846;3.224;2024-03-22T06:23:15;19.63;;;8.70;;
81306;SDS011;70775;50.846;3.224;2024-03-22T06:25:40;17.45;;;7.70;;
81306;SDS011;70775;50.846;3.224;2024-03-22T06:28:06;16.27;;;7.63;;
81306;SDS011;70775;50.846;3.224;2024-03-22T06:30:32;15.15;;;7.15;;
81306;SDS011;70775;50.846;3.224;2024-03-22T06:32:57;13.18;;;6.95;;
81306;SDS011;70775;50.846;3.224;2024-03-22T06:35:23;15.63;;;6.60;;
81306;SDS011;70775;50.846;3.224;2024-03-22T06:37:48;16.67;;;7.47;;
81306;SDS011;70775;50.846;3.224;2024-03-22T06:40:14;15.30;;;7.50;;
81306;SDS011;70775;50.846;3.224;2024-03-22T06:42:41;12.15;;;6.45;;
81306;SDS011;70775;50.846;3.224;2024-03-22T06:45:07;15.90;;;6.60;;
81306;SDS011;70775;50.846;3.224;2024-03-22T06:47:32;13.75;;;6.13;;
81306;SDS011;70775;50.846;3.224;2024-03-22T06:49:58;12.27;;;6.20;;
81306;SDS011;70775;50.846;3.224;2024-03-22T06:52:24;19.80;;;7.95;;
81306;SDS011;70775;50.846;3.224;2024-03-22T06:54:50;15.27;;;4.95;;
81306;SDS011;70775;50.846;3.224;2024-03-22T06:57:16;18.02;;;7.85;;
81306;SDS011;70775;50.846;3.224;2024-03-22T06:59:41;18.58;;;7.78;;
81306;SDS011;70775;50.846;3.224;2024-03-22T07:02:07;17.35;;;8.05;;
81306;SDS011;70775;50.846;3.224;2024-03-22T07:04:34;17.65;;;6.80;;
81306;SDS011;70775;50.846;3.224;2024-03-22T07:07:00;19.77;;;8.18;;
81306;SDS011;70775;50.846;3.224;2024-03-22T07:09:26;18.27;;;7.72;;
81306;SDS011;70775;50.846;3.224;2024-03-22T07:11:53;15.43;;;7.50;;
81306;SDS011;70775;50.846;3.224;2024-03-22T07:14:19;13.52;;;7.85;;
81306;SDS011;70775;50.846;3.224;2024-03-22T07:16:44;12.98;;;6.18;;
81306;SDS011;70775;50.846;3.224;2024-03-22T07:19:11;22.17;;;8.85;;
81306;SDS011;70775;50.846;3.224;2024-03-22T07:21:37;18.77;;;7.20;;
81306;SDS011;70775;50.846;3.224;2024-03-22T07:24:03;27.17;;;7.93;;
81306;SDS011;70775;50.846;3.224;2024-03-22T07:26:29;20.92;;;9.23;;
81306;SDS011;70775;50.846;3.224;2024-03-22T07:28:55;19.63;;;8.50;;
81306;SDS011;70775;50.846;3.224;2024-03-22T07:31:21;21.35;;;9.65;;
81306;SDS011;70775;50.846;3.224;2024-03-22T07:33:46;15.70;;;7.65;;
81306;SDS011;70775;50.846;3.224;2024-03-22T07:36:15;11.60;;;5.53;;
81306;SDS011;70775;50.846;3.224;2024-03-22T07:38:42;18.77;;;8.15;;
81306;SDS011;70775;50.846;3.224;2024-03-22T07:41:07;16.63;;;8.05;;
81306;SDS011;70775;50.846;3.224;2024-03-22T07:43:33;16.05;;;6.07;;
81306;SDS011;70775;50.846;3.224;2024-03-22T07:45:58;21.80;;;8.10;;
81306;SDS011;70775;50.846;3.224;2024-03-22T07:48:24;17.38;;;8.65;;
81306;SDS011;70775;50.846;3.224;2024-03-22T07:50:57;15.20;;;6.57;;
81306;SDS011;70775;50.846;3.224;2024-03-22T07:53:23;14.83;;;5.20;;
81306;SDS011;70775;50.846;3.224;2024-03-22T07:55:48;14.45;;;6.85;;
81306;SDS011;70775;50.846;3.224;2024-03-22T07:58:14;14.02;;;6.75;;
81306;SDS011;70775;50.846;3.224;2024-03-22T08:00:40;13.85;;;6.72;;
81306;SDS011;70775;50.846;3.224;2024-03-22T08:03:05;18.80;;;5.75;;
81306;SDS011;70775;50.846;3.224;2024-03-22T08:05:31;18.55;;;6.70;;
81306;SDS011;70775;50.846;3.224;2024-03-22T08:07:57;19.15;;;8.13;;
81306;SDS011;70775;50.846;3.224;2024-03-22T08:10:23;17.58;;;6.88;;
81306;SDS011;70775;50.846;3.224;2024-03-22T08:12:48;18.30;;;7.82;;
81306;SDS011;70775;50.846;3.224;2024-03-22T08:15:14;13.70;;;6.38;;
81306;SDS011;70775;50.846;3.224;2024-03-22T08:17:40;15.68;;;7.78;;
81306;SDS011;70775;50.846;3.224;2024-03-22T08:20:06;8.80;;;5.22;;
81306;SDS011;70775;50.846;3.224;2024-03-22T08:22:32;12.10;;;5.40;;
81306;SDS011;70775;50.846;3.224;2024-03-22T08:24:57;9.75;;;4.80;;
81306;SDS011;70775;50.846;3.224;2024-03-22T08:27:23;11.10;;;5.25;;
81306;SDS011;70775;50.846;3.224;2024-03-22T08:29:49;17.33;;;6.68;;
81306;SDS011;70775;50.846;3.224;2024-03-22T08:32:15;16.90;;;8.20;;
81306;SDS011;70775;50.846;3.224;2024-03-22T08:34:41;15.98;;;7.05;;
81306;SDS011;70775;50.846;3.224;2024-03-22T08:37:06;16.88;;;7.30;;
81306;SDS011;70775;50.846;3.224;2024-03-22T08:39:32;15.70;;;7.35;;
81306;SDS011;70775;50.846;3.224;2024-03-22T08:41:58;11.00;;;4.82;;
81306;SDS011;70775;50.846;3.224;2024-03-22T08:44:23;16.13;;;6.78;;
81306;SDS011;70775;50.846;3.224;2024-03-22T08:46:49;24.67;;;6.72;;
81306;SDS011;70775;50.846;3.224;2024-03-22T08:49:15;12.38;;;5.53;;
81306;SDS011;70775;50.846;3.224;2024-03-22T08:51:40;16.48;;;7.55;;
81306;SDS011;70775;50.846;3.224;2024-03-22T08:54:06;13.35;;;5.63;;
81306;SDS011;70775;50.846;3.224;2024-03-22T08:56:32;11.30;;;5.88;;
81306;SDS011;70775;50.846;3.224;2024-03-22T08:58:58;12.07;;;5.15;;
81306;SDS011;70775;50.846;3.224;2024-03-22T09:01:24;11.10;;;5.47;;
81306;SDS011;70775;50.846;3.224;2024-03-22T09:03:50;8.43;;;4.32;;
81306;SDS011;70775;50.846;3.224;2024-03-22T09:06:16;12.07;;;5.30;;
81306;SDS011;70775;50.846;3.224;2024-03-22T09:08:41;10.63;;;4.70;;
81306;SDS011;70775;50.846;3.224;2024-03-22T09:11:07;10.88;;;4.75;;
81306;SDS011;70775;50.846;3.224;2024-03-22T09:13:33;12.77;;;5.82;;
81306;SDS011;70775;50.846;3.224;2024-03-22T09:16:00;16.48;;;4.70;;
81306;SDS011;70775;50.846;3.224;2024-03-22T09:18:26;9.45;;;4.53;;
81306;SDS011;70775;50.846;3.224;2024-03-22T09:20:52;8.50;;;3.65;;
81306;SDS011;70775;50.846;3.224;2024-03-22T09:23:18;15.85;;;5.45;;
81306;SDS011;70775;50.846;3.224;2024-03-22T09:25:45;11.05;;;6.05;;
81306;SDS011;70775;50.846;3.224;2024-03-22T09:28:12;10.80;;;4.22;;
81306;SDS011;70775;50.846;3.224;2024-03-22T09:30:38;11.15;;;5.50;;
81306;SDS011;70775;50.846;3.224;2024-03-22T09:33:05;12.20;;;5.53;;
81306;SDS011;70775;50.846;3.224;2024-03-22T09:35:35;13.32;;;5.88;;
81306;SDS011;70775;50.846;3.224;2024-03-22T09:38:01;11.55;;;4.38;;
81306;SDS011;70775;50.846;3.224;2024-03-22T09:40:27;8.15;;;4.20;;
81306;SDS011;70775;50.846;3.224;2024-03-22T09:42:53;12.45;;;5.18;;
81306;SDS011;70775;50.846;3.224;2024-03-22T09:45:22;12.10;;;5.50;;
81306;SDS011;70775;50.846;3.224;2024-03-22T09:47:48;11.48;;;4.55;;
81306;SDS011;70775;50.846;3.224;2024-03-22T09:50:15;10.27;;;4.88;;
81306;SDS011;70775;50.846;3.224;2024-03-22T09:52:41;13.23;;;5.07;;
81306;SDS011;70775;50.846;3.224;2024-03-22T09:55:09;8.75;;;4.80;;
81306;SDS011;70775;50.846;3.224;2024-03-22T09:57:35;15.68;;;5.30;;
81306;SDS011;70775;50.846;3.224;2024-03-22T10:00:05;11.88;;;4.00;;
81306;SDS011;70775;50.846;3.224;2024-03-22T10:02:32;9.70;;;4.53;;
81306;SDS011;70775;50.846;3.224;2024-03-22T10:04:59;11.20;;;4.72;;
81306;SDS011;70775;50.846;3.224;2024-03-22T10:07:25;10.23;;;4.97;;
81306;SDS011;70775;50.846;3.224;2024-03-22T10:09:57;12.57;;;5.85;;
81306;SDS011;70775;50.846;3.224;2024-03-22T10:12:23;14.15;;;6.13;;
81306;SDS011;70775;50.846;3.224;2024-03-22T10:14:52;16.08;;;5.72;;
81306;SDS011;70775;50.846;3.224;2024-03-22T10:17:18;13.43;;;5.90;;
81306;SDS011;70775;50.846;3.224;2024-03-22T10:19:44;13.90;;;6.43;;
81306;SDS011;70775;50.846;3.224;2024-03-22T10:22:10;11.90;;;5.72;;
81306;SDS011;70775;50.846;3.224;2024-03-22T10:24:35;8.93;;;4.45;;
81306;SDS011;70775;50.846;3.224;2024-03-22T10:27:01;10.20;;;5.20;;
81306;SDS011;70775;50.846;3.224;2024-03-22T10:29:27;16.48;;;5.80;;
81306;SDS011;70775;50.846;3.224;2024-03-22T10:31:53;15.10;;;6.05;;
81306;SDS011;70775;50.846;3.224;2024-03-22T10:34:24;16.10;;;5.95;;
81306;SDS011;70775;50.846;3.224;2024-03-22T10:36:50;11.30;;;5.05;;
81306;SDS011;70775;50.846;3.224;2024-03-22T10:39:17;9.98;;;5.80;;
81306;SDS011;70775;50.846;3.224;2024-03-22T10:41:46;12.32;;;5.13;;
81306;SDS011;70775;50.846;3.224;2024-03-22T10:44:12;13.57;;;6.00;;
81306;SDS011;70775;50.846;3.224;2024-03-22T10:46:38;13.05;;;5.47;;
81306;SDS011;70775;50.846;3.224;2024-03-22T10:49:17;12.35;;;4.93;;
81306;SDS011;70775;50.846;3.224;2024-03-22T10:51:44;16.25;;;6.70;;
81306;SDS011;70775;50.846;3.224;2024-03-22T10:54:13;16.85;;;6.60;;
81306;SDS011;70775;50.846;3.224;2024-03-22T10:56:44;15.35;;;7.10;;
81306;SDS011;70775;50.846;3.224;2024-03-22T10:59:13;18.02;;;7.90;;
81306;SDS011;70775;50.846;3.224;2024-03-22T11:01:51;12.23;;;6.45;;
81306;SDS011;70775;50.846;3.224;2024-03-22T11:04:17;22.80;;;8.38;;
81306;SDS011;70775;50.846;3.224;2024-03-22T11:06:50;20.92;;;9.20;;
81306;SDS011;70775;50.846;3.224;2024-03-22T11:09:22;21.33;;;9.90;;
81306;SDS011;70775;50.846;3.224;2024-03-22T11:11:53;15.23;;;7.95;;
81306;SDS011;70775;50.846;3.224;2024-03-22T11:14:21;24.40;;;11.00;;
81306;SDS011;70775;50.846;3.224;2024-03-22T11:16:49;30.08;;;11.68;;
81306;SDS011;70775;50.846;3.224;2024-03-22T11:19:15;23.73;;;11.95;;
81306;SDS011;70775;50.846;3.224;2024-03-22T11:21:41;26.13;;;10.82;;
81306;SDS011;70775;50.846;3.224;2024-03-22T11:24:07;25.33;;;9.85;;
81306;SDS011;70775;50.846;3.224;2024-03-22T11:26:33;24.20;;;10.65;;
81306;SDS011;70775;50.846;3.224;2024-03-22T11:28:59;15.65;;;8.57;;
81306;SDS011;70775;50.846;3.224;2024-03-22T11:31:25;16.83;;;7.88;;
81306;SDS011;70775;50.846;3.224;2024-03-22T11:33:55;18.50;;;8.82;;
81306;SDS011;70775;50.846;3.224;2024-03-22T11:36:24;18.33;;;8.95;;
81306;SDS011;70775;50.846;3.224;2024-03-22T11:38:50;21.00;;;9.38;;
81306;SDS011;70775;50.846;3.224;2024-03-22T11:41:19;20.42;;;9.50;;
81306;SDS011;70775;50.846;3.224;2024-03-22T11:43:48;15.05;;;6.80;;
81306;SDS011;70775;50.846;3.224;2024-03-22T11:46:15;22.13;;;10.25;;
81306;SDS011;70775;50.846;3.224;2024-03-22T11:48:41;20.00;;;9.45;;
81306;SDS011;70775;50.846;3.224;2024-03-22T11:51:08;20.35;;;9.43;;
81306;SDS011;70775;50.846;3.224;2024-03-22T11:53:37;21.77;;;9.20;;
81306;SDS011;70775;50.846;3.224;2024-03-22T11:56:03;15.73;;;8.43;;
81306;SDS011;70775;50.846;3.224;2024-03-22T11:58:29;21.55;;;9.18;;
81306;SDS011;70775;50.846;3.224;2024-03-22T12:00:58;17.35;;;8.95;;
81306;SDS011;70775;50.846;3.224;2024-03-22T12:03:24;18.83;;;9.35;;
81306;SDS011;70775;50.846;3.224;2024-03-22T12:05:50;16.75;;;8.73;;
81306;SDS011;70775;50.846;3.224;2024-03-22T12:08:19;22.73;;;9.65;;
81306;SDS011;70775;50.846;3.224;2024-03-22T12:10:45;22.92;;;8.98;;
81306;SDS011;70775;50.846;3.224;2024-03-22T12:13:11;17.63;;;9.98;;
81306;SDS011;70775;50.846;3.224;2024-03-22T12:15:36;17.95;;;9.52;;
81306;SDS011;70775;50.846;3.224;2024-03-22T12:18:02;22.60;;;9.95;;
81306;SDS011;70775;50.846;3.224;2024-03-22T12:20:28;19.35;;;9.15;;
81306;SDS011;70775;50.846;3.224;2024-03-22T12:22:54;18.70;;;9.88;;
81306;SDS011;70775;50.846;3.224;2024-03-22T12:25:20;22.40;;;9.90;;
81306;SDS011;70775;50.846;3.224;2024-03-22T12:27:46;16.10;;;8.73;;
81306;SDS011;70775;50.846;3.224;2024-03-22T12:30:12;20.00;;;9.93;;
81306;SDS011;70775;50.846;3.224;2024-03-22T12:32:38;21.83;;;10.20;;
81306;SDS011;70775;50.846;3.224;2024-03-22T12:35:04;16.38;;;9.27;;
81306;SDS011;70775;50.846;3.224;2024-03-22T12:37:30;20.60;;;10.25;;
81306;SDS011;70775;50.846;3.224;2024-03-22T12:39:56;25.75;;;10.82;;
81306;SDS011;70775;50.846;3.224;2024-03-22T12:42:21;19.45;;;9.05;;
81306;SDS011;70775;50.846;3.224;2024-03-22T12:44:48;13.45;;;8.10;;
81306;SDS011;70775;50.846;3.224;2024-03-22T12:47:13;19.23;;;9.50;;
81306;SDS011;70775;50.846;3.224;2024-03-22T12:49:39;22.00;;;10.88;;
81306;SDS011;70775;50.846;3.224;2024-03-22T12:52:05;23.42;;;11.32;;
81306;SDS011;70775;50.846;3.224;2024-03-22T12:54:32;18.05;;;10.10;;
81306;SDS011;70775;50.846;3.224;2024-03-22T12:56:57;22.08;;;11.68;;
81306;SDS011;70775;50.846;3.224;2024-03-22T12:59:23;18.80;;;9.57;;
81306;SDS011;70775;50.846;3.224;2024-03-22T13:01:49;12.85;;;6.72;;
81306;SDS011;70775;50.846;3.224;2024-03-22T13:04:14;18.25;;;8.85;;
81306;SDS011;70775;50.846;3.224;2024-03-22T13:06:40;12.98;;;7.63;;
81306;SDS011;70775;50.846;3.224;2024-03-22T13:09:05;16.20;;;8.05;;
81306;SDS011;70775;50.846;3.224;2024-03-22T13:11:34;17.05;;;8.05;;
81306;SDS011;70775;50.846;3.224;2024-03-22T13:14:00;20.90;;;9.65;;
81306;SDS011;70775;50.846;3.224;2024-03-22T13:16:26;20.73;;;10.18;;
81306;SDS011;70775;50.846;3.224;2024-03-22T13:18:52;18.40;;;9.95;;
81306;SDS011;70775;50.846;3.224;2024-03-22T13:21:18;18.88;;;8.65;;
81306;SDS011;70775;50.846;3.224;2024-03-22T13:23:44;14.23;;;7.47;;
81306;SDS011;70775;50.846;3.224;2024-03-22T13:26:10;14.90;;;7.75;;
81306;SDS011;70775;50.846;3.224;2024-03-22T13:28:35;16.17;;;8.93;;
81306;SDS011;70775;50.846;3.224;2024-03-22T13:33:35;15.77;;;8.75;;
81306;SDS011;70775;50.846;3.224;2024-03-22T13:36:01;13.18;;;7.32;;
81306;SDS011;70775;50.846;3.224;2024-03-22T13:38:27;12.80;;;7.03;;
81306;SDS011;70775;50.846;3.224;2024-03-22T13:40:57;19.73;;;8.75;;
81306;SDS011;70775;50.846;3.224;2024-03-22T13:43:25;16.23;;;8.93;;
81306;SDS011;70775;50.846;3.224;2024-03-22T13:45:53;15.38;;;8.80;;
81306;SDS011;70775;50.846;3.224;2024-03-22T13:48:20;19.75;;;9.70;;
81306;SDS011;70775;50.846;3.224;2024-03-22T13:50:53;13.90;;;9.25;;
81306;SDS011;70775;50.846;3.224;2024-03-22T13:53:19;18.60;;;10.13;;
81306;SDS011;70775;50.846;3.224;2024-03-22T13:55:47;24.30;;;11.75;;
81306;SDS011;70775;50.846;3.224;2024-03-22T13:58:13;20.08;;;11.30;;
81306;SDS011;70775;50.846;3.224;2024-03-22T14:00:39;20.00;;;9.68;;
81306;SDS011;70775;50.846;3.224;2024-03-22T14:03:05;17.73;;;10.07;;
81306;SDS011;70775;50.846;3.224;2024-03-22T14:05:30;17.50;;;7.75;;
81306;SDS011;70775;50.846;3.224;2024-03-22T14:07:57;15.10;;;9.55;;
81306;SDS011;70775;50.846;3.224;2024-03-22T14:10:23;21.33;;;11.13;;
81306;SDS011;70775;50.846;3.224;2024-03-22T14:12:51;19.95;;;10.82;;
81306;SDS011;70775;50.846;3.224;2024-03-22T14:15:17;19.05;;;10.38;;
81306;SDS011;70775;50.846;3.224;2024-03-22T14:17:43;17.30;;;9.75;;
81306;SDS011;70775;50.846;3.224;2024-03-22T14:20:08;17.73;;;10.65;;
81306;SDS011;70775;50.846;3.224;2024-03-22T14:22:40;20.80;;;10.07;;
81306;SDS011;70775;50.846;3.224;2024-03-22T14:25:07;22.17;;;12.00;;
81306;SDS011;70775;50.846;3.224;2024-03-22T14:27:36;15.65;;;8.77;;
81306;SDS011;70775;50.846;3.224;2024-03-22T14:30:03;17.10;;;9.63;;